createdAt,value
2023-05-06T00:00:24.602Z,12.27
2023-05-06T00:06:36.041Z,11.65
2023-05-06T00:09:47.812Z,11.57
2023-05-06T00:12:52.085Z,11.80
2023-05-06T00:15:59.031Z,11.57
2023-05-06T00:19:04.469Z,11.32
2023-05-06T00:25:12.397Z,11.80
2023-05-06T00:28:16.774Z,11.43
2023-05-06T00:31:21.496Z,11.73
2023-05-06T00:34:28.134Z,11.40
2023-05-06T00:41:10.779Z,14.65
2023-05-06T00:44:20.609Z,16.90
2023-05-06T00:47:27.222Z,27.17
2023-05-06T00:50:34.652Z,45.67
2023-05-06T00:53:48.843Z,33.30
2023-05-06T00:56:56.072Z,18.63
2023-05-06T01:00:02.912Z,15.82
2023-05-06T01:03:08.325Z,15.48
2023-05-06T01:06:22.458Z,13.73
2023-05-06T01:09:54.284Z,15.70
2023-05-06T01:13:23.561Z,14.88
2023-05-06T01:16:31.762Z,14.95
2023-05-06T01:20:07.252Z,14.55
2023-05-06T01:23:13.965Z,15.00
2023-05-06T01:26:21.677Z,14.13
2023-05-06T01:29:30.821Z,14.88
2023-05-06T01:33:04.514Z,14.95
2023-05-06T01:36:17.719Z,14.43
2023-05-06T01:43:57.992Z,14.80
2023-05-06T01:47:17.407Z,16.55
2023-05-06T01:51:16.682Z,15.38
2023-05-06T01:54:08.514Z,16.02
2023-05-06T01:57:39.919Z,15.85
2023-05-06T02:01:50.799Z,16.92
2023-05-06T02:04:42.948Z,14.93
2023-05-06T02:07:52.252Z,16.83
2023-05-06T02:11:02.366Z,17.48
2023-05-06T02:14:45.724Z,14.30
2023-05-06T02:17:54.784Z,15.48
2023-05-06T02:21:35.188Z,16.63
2023-05-06T02:24:42.962Z,17.25
2023-05-06T02:28:17.401Z,16.08
2023-05-06T02:31:25.436Z,18.13
2023-05-06T02:34:46.035Z,17.27
2023-05-06T02:37:55.715Z,16.05
2023-05-06T02:41:09.590Z,17.02
2023-05-06T02:44:54.781Z,16.73
2023-05-06T02:48:12.444Z,17.55
2023-05-06T02:51:27.797Z,19.27
2023-05-06T02:54:52.613Z,14.95
2023-05-06T02:57:57.564Z,15.67
2023-05-06T03:01:10.212Z,14.85
2023-05-06T03:07:45.404Z,15.07
2023-05-06T03:14:22.452Z,15.88
2023-05-06T03:21:31.198Z,17.65
2023-05-06T03:25:16.834Z,17.23
2023-05-06T03:29:50.437Z,16.90
2023-05-06T03:38:07.604Z,15.73
2023-05-06T03:41:56.640Z,15.63
2023-05-06T03:49:05.970Z,17.05
2023-05-06T03:52:12.582Z,17.70
2023-05-06T03:55:17.405Z,17.58
2023-05-06T03:58:21.886Z,18.90
2023-05-06T04:01:29.721Z,18.15
2023-05-06T04:04:49.693Z,19.58
2023-05-06T04:07:54.271Z,19.02
2023-05-06T04:11:05.968Z,18.85
2023-05-06T04:14:13.676Z,19.75
2023-05-06T04:17:18.501Z,19.63
2023-05-06T04:20:27.382Z,21.58
2023-05-06T04:23:32.815Z,20.08
2023-05-06T04:26:41.227Z,19.17
2023-05-06T04:29:47.072Z,23.35
2023-05-06T04:32:56.177Z,20.77
2023-05-06T04:36:01.181Z,18.83
2023-05-06T04:39:09.709Z,20.60
2023-05-06T04:42:16.969Z,19.88
2023-05-06T04:45:33.881Z,19.95
2023-05-06T04:58:06.620Z,33.13
2023-05-06T05:01:43.055Z,39.60
2023-05-06T05:04:50.060Z,40.67
2023-05-06T05:07:54.684Z,37.35
2023-05-06T05:10:59.497Z,49.88
2023-05-06T05:14:06.786Z,40.40
2023-05-06T05:17:11.393Z,46.47
2023-05-06T05:20:16.753Z,43.75
2023-05-06T05:23:20.746Z,54.95
2023-05-06T05:26:27.464Z,30.25
2023-05-06T05:29:34.633Z,42.70
2023-05-06T05:32:42.433Z,31.02
2023-05-06T05:35:47.302Z,32.58
2023-05-06T05:38:52.429Z,37.55
2023-05-06T05:42:01.911Z,33.47
2023-05-06T05:45:06.193Z,31.65
2023-05-06T05:48:10.468Z,27.67
2023-05-06T05:51:15.411Z,24.30
2023-05-06T05:59:04.662Z,28.13
2023-05-06T06:03:30.357Z,28.25
2023-05-06T06:11:32.009Z,37.00
2023-05-06T06:15:08.953Z,38.92
2023-05-06T06:24:12.734Z,33.88
2023-05-06T06:36:40.651Z,36.40
2023-05-06T06:40:13.012Z,45.55
2023-05-06T06:43:26.862Z,51.63
2023-05-06T06:46:37.243Z,29.13
2023-05-06T06:49:44.742Z,31.10
2023-05-06T06:52:48.702Z,26.23
2023-05-06T06:57:21.172Z,13.52
2023-05-06T07:05:21.631Z,11.88
2023-05-06T07:08:53.947Z,13.52
2023-05-06T07:12:13.036Z,17.17
2023-05-06T07:15:28.621Z,17.13
2023-05-06T07:19:08.589Z,13.40
2023-05-06T07:22:25.425Z,15.43
2023-05-06T07:25:42.139Z,9.45
2023-05-06T07:28:54.346Z,10.52
2023-05-06T07:32:11.236Z,14.90
2023-05-06T07:35:29.217Z,17.08
2023-05-06T07:38:35.691Z,16.08
2023-05-06T07:41:55.351Z,18.47
2023-05-06T07:45:20.047Z,17.33
2023-05-06T07:48:36.438Z,16.30
2023-05-06T07:51:49.189Z,11.93
2023-05-06T07:54:59.902Z,7.95
2023-05-06T08:02:58.328Z,8.50
2023-05-06T08:06:33.118Z,7.05
2023-05-06T08:09:37.712Z,8.57
2023-05-06T08:12:44.728Z,8.40
2023-05-06T08:15:48.985Z,9.55
2023-05-06T08:18:55.821Z,8.68
2023-05-06T08:22:00.040Z,8.82
2023-05-06T08:25:05.809Z,9.20
2023-05-06T08:28:11.773Z,8.98
2023-05-06T08:31:16.263Z,7.65
2023-05-06T08:34:29.776Z,7.85
2023-05-06T08:37:34.853Z,9.20
2023-05-06T08:40:45.912Z,7.20
2023-05-06T08:43:51.392Z,7.90
2023-05-06T08:46:58.124Z,8.13
2023-05-06T08:50:02.464Z,8.43
2023-05-06T08:53:16.200Z,8.23
2023-05-06T08:56:30.156Z,9.25
2023-05-06T08:59:37.162Z,11.00
2023-05-06T09:03:28.385Z,12.10
2023-05-06T09:10:57.101Z,39.08
2023-05-06T09:14:57.827Z,40.85
2023-05-06T09:18:08.910Z,19.58
2023-05-06T09:21:23.388Z,19.05
2023-05-06T09:24:44.568Z,18.25
2023-05-06T09:28:24.171Z,56.22
2023-05-06T09:31:55.864Z,38.78
2023-05-06T09:35:16.216Z,24.30
2023-05-06T09:56:16.803Z,22.80
2023-05-06T09:59:31.640Z,21.65
2023-05-06T10:03:13.521Z,24.02
2023-05-06T10:11:08.775Z,27.45
2023-05-06T10:14:16.190Z,34.55
2023-05-06T10:17:22.421Z,31.35
2023-05-06T10:20:28.703Z,30.58
2023-05-06T10:23:45.346Z,27.25
2023-05-06T10:26:56.371Z,28.00
2023-05-06T10:30:02.780Z,26.10
2023-05-06T10:33:10.436Z,27.48
2023-05-06T10:36:31.063Z,34.42
2023-05-06T10:39:35.563Z,38.10
2023-05-06T10:42:39.738Z,38.63
2023-05-06T10:46:07.904Z,41.88
2023-05-06T10:49:12.747Z,42.60
2023-05-06T10:52:24.864Z,50.78
2023-05-06T10:55:35.710Z,46.83
2023-05-06T10:58:50.633Z,47.92
2023-05-06T11:02:07.241Z,39.60
2023-05-06T11:05:13.261Z,42.53
2023-05-06T11:08:28.529Z,50.05
2023-05-06T11:12:05.798Z,51.47
2023-05-06T11:15:41.485Z,46.38
2023-05-06T11:18:49.870Z,46.97
2023-05-06T11:21:58.657Z,49.78
2023-05-06T11:25:07.688Z,52.03
2023-05-06T11:28:13.868Z,57.75
2023-05-06T11:31:23.182Z,42.08
2023-05-06T11:34:31.557Z,50.55
2023-05-06T11:37:39.016Z,23.70
2023-05-06T11:40:45.588Z,31.48
2023-05-06T11:43:51.189Z,25.10
2023-05-06T11:47:19.145Z,26.48
2023-05-06T11:50:26.426Z,30.20
2023-05-06T11:53:31.706Z,29.45
2023-05-06T11:56:58.131Z,29.67
2023-05-06T12:00:03.175Z,28.73
2023-05-06T12:03:20.919Z,33.40
2023-05-06T12:06:35.545Z,34.10
2023-05-06T12:10:09.845Z,32.15
2023-05-06T12:13:21.813Z,34.83
2023-05-06T12:16:30.474Z,32.85
2023-05-06T12:19:39.536Z,26.27
2023-05-06T12:22:48.916Z,61.58
2023-05-06T12:26:07.404Z,42.75
2023-05-06T12:29:18.143Z,45.10
2023-05-06T12:32:22.883Z,46.55
2023-05-06T12:35:29.505Z,44.85
2023-05-06T12:38:48.100Z,47.70
2023-05-06T12:42:22.119Z,48.55
2023-05-06T12:45:28.650Z,40.45
2023-05-06T12:48:36.697Z,42.97
2023-05-06T12:51:47.639Z,38.55
2023-05-06T12:54:55.801Z,37.30
2023-05-06T12:58:00.061Z,35.45
2023-05-06T13:01:08.673Z,36.17
2023-05-06T13:04:14.437Z,35.05
2023-05-06T13:07:22.105Z,32.53
2023-05-06T13:10:27.124Z,31.42
2023-05-06T13:13:32.145Z,61.27
2023-05-06T13:16:39.789Z,55.10
2023-05-06T13:19:44.145Z,48.00
2023-05-06T13:22:54.666Z,34.75
2023-05-06T13:26:04.244Z,29.83
2023-05-06T13:29:11.800Z,27.27
2023-05-06T13:32:25.544Z,32.17
2023-05-06T13:35:32.663Z,33.90
2023-05-06T13:38:43.681Z,28.30
2023-05-06T13:41:50.887Z,33.22
2023-05-06T13:44:55.475Z,40.58
2023-05-06T13:48:02.222Z,34.97
2023-05-06T13:51:09.824Z,33.30
2023-05-06T13:54:17.137Z,31.38
2023-05-06T13:57:23.055Z,30.35
2023-05-06T14:06:45.757Z,27.15
2023-05-06T14:09:52.850Z,32.72
2023-05-06T14:13:02.744Z,29.27
2023-05-06T14:16:11.220Z,34.50
2023-05-06T14:19:17.551Z,34.17
2023-05-06T14:22:26.651Z,41.50
2023-05-06T14:25:33.190Z,44.85
2023-05-06T14:28:37.221Z,41.17
2023-05-06T14:31:48.047Z,40.33
2023-05-06T14:34:52.032Z,32.90
2023-05-06T14:37:56.700Z,35.60
2023-05-06T14:41:01.889Z,34.90
2023-05-06T14:44:07.368Z,39.15
2023-05-06T14:47:11.801Z,37.33
2023-05-06T14:50:19.592Z,40.28
2023-05-06T14:53:26.850Z,39.60
2023-05-06T14:56:31.321Z,37.92
2023-05-06T14:59:36.058Z,39.47
2023-05-06T15:02:42.570Z,36.10
2023-05-06T15:05:47.201Z,35.00
2023-05-06T15:08:57.220Z,35.20
2023-05-06T15:12:02.640Z,35.50
2023-05-06T15:15:07.849Z,34.45
2023-05-06T15:18:14.145Z,34.20
2023-05-06T15:21:18.776Z,35.45
2023-05-06T15:24:23.703Z,35.97
2023-05-06T15:27:32.808Z,35.72
2023-05-06T15:30:39.285Z,33.00
2023-05-06T15:33:46.823Z,40.05
2023-05-06T15:36:55.249Z,53.55
2023-05-06T15:39:59.336Z,34.38
2023-05-06T15:43:06.364Z,30.85
2023-05-06T15:46:13.787Z,43.30
2023-05-06T15:49:47.452Z,30.65
2023-05-06T15:52:46.488Z,21.02
2023-05-06T15:55:57.218Z,18.85
2023-05-06T15:59:09.146Z,18.27
2023-05-06T16:05:23.895Z,22.70
2023-05-06T16:08:28.460Z,22.77
2023-05-06T16:11:32.992Z,22.10
2023-05-06T16:14:39.894Z,22.92
2023-05-06T16:17:44.611Z,23.60
2023-05-06T16:20:50.076Z,24.33
2023-05-06T16:23:54.579Z,23.42
2023-05-06T16:27:28.980Z,23.90
2023-05-06T16:30:33.252Z,24.70
2023-05-06T16:33:38.126Z,22.85
2023-05-06T16:36:42.677Z,23.75
2023-05-06T16:39:46.654Z,34.70
2023-05-06T16:42:53.242Z,34.97
2023-05-06T16:45:57.764Z,25.30
2023-05-06T16:49:04.683Z,24.90
2023-05-06T16:52:08.983Z,34.60
2023-05-06T16:55:13.585Z,26.63
2023-05-06T16:58:17.470Z,26.55
2023-05-06T17:01:22.179Z,25.80
2023-05-06T17:04:25.882Z,25.75
2023-05-06T17:07:33.330Z,26.80
2023-05-06T17:10:37.666Z,33.55
2023-05-06T17:13:41.871Z,37.58
2023-05-06T17:16:46.537Z,33.80
2023-05-06T17:19:50.609Z,32.63
2023-05-06T17:22:55.120Z,29.63
2023-05-06T17:25:59.664Z,29.65
2023-05-06T17:29:14.130Z,39.05
2023-05-06T17:32:21.258Z,30.35
2023-05-06T17:35:25.870Z,27.80
2023-05-06T17:38:31.417Z,27.40
2023-05-06T17:41:38.398Z,28.95
2023-05-06T17:44:45.353Z,30.35
2023-05-06T17:47:50.894Z,27.92
2023-05-06T17:51:06.807Z,26.38
2023-05-06T17:54:11.381Z,34.53
2023-05-06T17:57:17.165Z,36.90
2023-05-06T18:03:25.205Z,29.60
2023-05-06T18:06:32.730Z,30.90
2023-05-06T18:09:38.684Z,27.30
2023-05-06T18:12:48.871Z,37.67
2023-05-06T18:15:53.487Z,33.83
2023-05-06T18:18:58.365Z,30.45
2023-05-06T18:22:02.723Z,21.03
2023-05-06T18:25:08.168Z,30.92
2023-05-06T18:28:12.901Z,27.55
2023-05-06T18:31:41.581Z,22.05
2023-05-06T18:34:48.908Z,22.95
2023-05-06T18:37:57.636Z,26.65
2023-05-06T18:41:04.137Z,21.95
2023-05-06T18:44:08.978Z,18.02
2023-05-06T18:47:13.333Z,17.35
2023-05-06T18:50:20.941Z,16.83
2023-05-06T18:53:25.527Z,16.58
2023-05-06T18:56:31.142Z,16.45
2023-05-06T18:59:37.482Z,17.30
2023-05-06T19:02:42.139Z,17.85
2023-05-06T19:05:49.093Z,21.17
2023-05-06T19:08:54.471Z,21.52
2023-05-06T19:11:58.732Z,26.60
2023-05-06T19:15:03.039Z,26.10
2023-05-06T19:18:08.223Z,17.87
2023-05-06T19:21:13.646Z,16.77
2023-05-06T19:24:18.084Z,18.58
2023-05-06T19:27:22.597Z,16.98
2023-05-06T19:30:32.598Z,17.05
2023-05-06T19:33:45.971Z,16.75
2023-05-06T19:36:55.639Z,19.35
2023-05-06T19:40:10.050Z,17.77
2023-05-06T19:43:16.856Z,19.67
2023-05-06T19:46:30.453Z,19.10
2023-05-06T19:49:40.589Z,16.85
2023-05-06T19:52:59.016Z,17.80
2023-05-06T19:56:50.412Z,19.42
2023-05-06T20:00:12.522Z,16.45
2023-05-06T20:03:19.678Z,15.57
2023-05-06T20:06:38.036Z,16.10
2023-05-06T20:09:57.670Z,17.15
2023-05-06T20:13:08.024Z,17.45
2023-05-06T20:16:17.288Z,17.47
2023-05-06T20:19:53.351Z,16.38
2023-05-06T20:22:59.757Z,15.68
2023-05-06T20:26:06.688Z,15.50
2023-05-06T20:29:11.129Z,16.70
2023-05-06T20:32:28.684Z,15.73
2023-05-06T20:35:41.702Z,16.42
2023-05-06T20:43:01.911Z,17.10
2023-05-06T20:46:07.589Z,17.05
2023-05-06T20:49:12.622Z,15.20
2023-05-06T20:52:25.320Z,17.63
2023-05-06T20:55:43.971Z,14.20
2023-05-06T20:58:50.522Z,15.82
2023-05-06T21:01:59.587Z,16.63
2023-05-06T21:05:05.443Z,15.90
2023-05-06T21:08:14.310Z,15.55
2023-05-06T21:11:19.956Z,15.57
2023-05-06T21:14:31.058Z,24.48
2023-05-06T21:17:40.065Z,30.48
2023-05-06T21:21:01.593Z,17.17
2023-05-06T21:24:12.683Z,16.42
2023-05-06T21:30:25.521Z,16.70
2023-05-06T21:33:30.021Z,17.42
2023-05-06T21:36:39.464Z,17.00
2023-05-06T21:40:05.158Z,17.23
2023-05-06T21:43:26.593Z,16.83
2023-05-06T21:46:35.810Z,17.40
2023-05-06T21:50:08.399Z,16.85
2023-05-06T21:53:14.073Z,17.13
2023-05-06T21:56:23.815Z,16.65
2023-05-06T21:59:29.599Z,16.92
2023-05-06T22:02:46.495Z,18.08
2023-05-06T22:05:53.267Z,16.52
2023-05-06T22:09:09.729Z,17.35
2023-05-06T22:12:19.829Z,17.05
2023-05-06T22:19:35.290Z,17.05
2023-05-06T22:22:45.349Z,14.93
2023-05-06T22:25:49.929Z,16.67
2023-05-06T22:28:56.391Z,15.10
2023-05-06T22:32:06.906Z,16.40
2023-05-06T22:35:14.857Z,17.13
2023-05-06T22:38:19.721Z,14.85
2023-05-06T22:41:24.387Z,16.33
2023-05-06T22:45:15.650Z,16.25
2023-05-06T22:50:01.201Z,14.95
2023-05-06T22:53:38.589Z,14.00
2023-05-06T22:56:46.464Z,14.30
2023-05-06T22:59:50.905Z,14.23
2023-05-06T23:02:55.413Z,14.32
2023-05-06T23:05:59.325Z,15.63
2023-05-06T23:09:06.470Z,14.75
2023-05-06T23:12:10.930Z,15.25
2023-05-06T23:15:33.330Z,15.60
2023-05-06T23:18:47.055Z,14.55
2023-05-06T23:21:51.406Z,15.05
2023-05-06T23:24:56.723Z,16.67
2023-05-06T23:28:01.098Z,15.57
2023-05-06T23:31:05.622Z,14.90
2023-05-06T23:34:10.036Z,15.23
2023-05-06T23:37:20.087Z,14.15
2023-05-06T23:40:24.536Z,13.73
2023-05-06T23:43:29.035Z,14.13
2023-05-06T23:46:33.652Z,12.80
2023-05-06T23:49:38.126Z,14.57
2023-05-06T23:52:42.614Z,14.35
2023-05-06T23:55:50.179Z,14.05
2023-05-06T23:58:57.456Z,14.30
